Flight Track Log - Related Links

Times and Time Zones

All times are in EDT time to prevent confusion due to time zone crossing. See the DAL2006 flight status page for this flight to view local times or setup timezone preferences in your user account.

Time Position Orientation Groundspeed Altitude Reporting Facility
EDT Latitude Longitude Course Direction KTS MPH feet Rate Location/Type
Tue 08:40:16 AM 40.7500 -73.8333 237° Southwest 174 200 1,900  Level New TRACON
Tue 08:41:16 AM 40.7500 -73.7833 90° East 242 278 4,700 2,900 Climbing New TRACON
Tue 08:42:16 AM 40.7833 -73.8333 311° West 263 303 7,700 3,150 Climbing New TRACON
Tue 08:43:00 AM 40.6578 -74.4580 259° West  Level FlightAware
Tue 08:43:16 AM 40.8000 -73.9333 282° West 281 323 11,000  Level New TRACON
Tue 08:44:00 AM 40.6344 -74.6097 259° West  Level FlightAware
Tue 08:44:16 AM 40.8000 -74.0500 270° West 336 387 12,700  Level New TRACON
Tue 08:45:00 AM 40.6013 -74.7474 237° Southwest  Level FlightAware
Tue 08:45:16 AM 40.7667 -74.1833 252° West 373 429 15,000  Level New TRACON
Tue 08:47:08 AM 40.7119 -74.4042 252° West 399 459 16,700 1,129 Climbing New Center
Tue 08:48:06 AM 40.6761 -74.5525 252° West 388 447 18,200 1,815 Climbing New Center
Tue 08:49:07 AM 40.6425 -74.6847 252° West 388 447 20,300 2,033 Climbing New Center
Tue 08:50:07 AM 40.6083 -74.8303 253° West 399 459 22,300 2,085 Climbing New Center
Tue 08:51:05 AM 40.5769 -74.9597 252° West 414 476 24,400 1,627 Climbing New Center
Tue 08:52:05 AM 40.5156 -75.0981 240° Southwest 419 482 25,500 1,190 Climbing New Center
Tue 08:53:06 AM 40.4358 -75.2239 230° Southwest 437 503 26,800 1,300 Climbing New Center
Tue 08:54:05 AM 40.3558 -75.3575 232° Southwest 464 534 28,100 1,500 Climbing New Center
Tue 08:55:06 AM 40.2736 -75.4881 230° Southwest 475 547 29,800 1,574 Climbing New Center
Tue 08:56:07 AM 40.1950 -75.6214 232° Southwest 475 547 31,300 1,400 Climbing New Center
Tue 08:57:06 AM 40.1247 -75.7603 237° Southwest 470 541 32,600 1,250 Climbing New Center
Tue 08:58:07 AM 40.0561 -75.8992 237° Southwest 464 534 33,800 1,261 Climbing New Center
Tue 08:59:05 AM 39.9856 -76.0350 236° Southwest 459 528 35,100 1,271 Climbing New Center
Tue 09:00:05 AM 39.9169 -76.1706 237° Southwest 464 534 36,300 1,289 Climbing New Center
Tue 09:01:06 AM 39.8458 -76.3083 236° Southwest 464 534 37,700 843 Climbing New Center
Tue 09:02:06 AM 39.7772 -76.4381 235° Southwest 454 522 38,000 119 Climbing New Center
Tue 09:03:37 AM 39.6689 -76.6467 236° Southwest 434 499 38,000  Level Washington Center
Tue 09:04:40 AM 39.6006 -76.7772 236° Southwest 437 503 38,000  Level Washington Center
Tue 09:05:42 AM 39.5333 -76.9086 236° Southwest 436 502 38,000  Level Washington Center
Tue 09:06:44 AM 39.4531 -77.0267 229° Southwest 435 501 38,000  Level Washington Center
Tue 09:07:47 AM 39.3561 -77.1231 218° Southwest 437 503 38,000  Level Washington Center
Tue 09:08:48 AM 39.2631 -77.2239 220° Southwest 437 503 38,000  Level Washington Center
Tue 09:09:50 AM 39.1492 -77.3425 219° Southwest 439 505 38,000  Level Washington Center
Tue 09:10:51 AM 39.0528 -77.4414 219° Southwest 441 507 38,000  Level Washington Center
Tue 09:11:53 AM 38.9508 -77.5461 219° Southwest 433 498 38,000  Level Washington Center
Tue 09:12:57 AM 38.8561 -77.6439 219° Southwest 441 507 38,000  Level Washington Center
Tue 09:13:58 AM 38.7575 -77.7442 218° Southwest 442 509 38,000  Level Washington Center
Tue 09:15:02 AM 38.6636 -77.8431 219° Southwest 440 506 38,000  Level Washington Center
Tue 09:16:03 AM 38.5844 -77.9597 229° Southwest 434 499 38,000  Level Washington Center
Tue 09:17:07 AM 38.5133 -78.0822 233° Southwest 431 496 38,000  Level Washington Center
Tue 09:18:08 AM 38.4417 -78.2047 233° Southwest 431 496 38,000  Level Washington Center
Tue 09:19:09 AM 38.3553 -78.3492 233° Southwest 429 494 38,000  Level Washington Center
Tue 09:20:13 AM 38.2842 -78.4703 233° Southwest 429 494 38,000  Level Washington Center
Tue 09:21:13 AM 38.2119 -78.5917 233° Southwest 427 491 38,000  Level Washington Center
Tue 09:22:17 AM 38.1400 -78.7106 232° Southwest 427 491 38,000  Level Washington Center
Tue 09:23:18 AM 38.0686 -78.8308 233° Southwest 427 491 38,000  Level Washington Center
Tue 09:24:22 AM 37.9967 -78.9508 233° Southwest 427 491 38,000  Level Washington Center
Tue 09:25:23 AM 37.9094 -79.0933 232° Southwest 427 491 38,000  Level Washington Center
Tue 09:26:24 AM 37.8464 -79.2183 237° Southwest 427 491 38,000  Level Washington Center
Tue 09:27:27 AM 37.7886 -79.3472 240° Southwest 425 489 38,000  Level Washington Center
Tue 09:28:28 AM 37.7392 -79.4806 245° Southwest 425 489 38,000  Level Washington Center
Tue 09:29:31 AM 37.6847 -79.6186 244° Southwest 425 489 38,000  Level Washington Center
Tue 09:30:35 AM 37.6317 -79.7525 243° Southwest 425 489 38,000  Level Washington Center
Tue 09:31:35 AM 37.5728 -79.9036 244° Southwest 426 490 38,000  Level Washington Center
Tue 09:32:38 AM 37.5197 -80.0369 243° Southwest 427 491 38,000  Level Washington Center
Tue 09:33:39 AM 37.4667 -80.1700 243° Southwest 427 491 38,000  Level Washington Center
Tue 09:34:43 AM 37.4031 -80.3306 244° Southwest 428 493 38,000  Level Washington Center
Tue 09:35:19 AM 37.3667 -80.4225 244° Southwest 439 505 38,000  Level Atlanta Center
Tue 09:36:19 AM 37.3142 -80.5553 244° Southwest 439 505 38,000  Level Atlanta Center
Tue 09:37:19 AM 37.2594 -80.6881 243° Southwest 439 505 38,000  Level Atlanta Center
Tue 09:38:19 AM 37.2067 -80.8181 243° Southwest 439 505 38,000  Level Atlanta Center
Tue 09:39:19 AM 37.1539 -80.9506 243° Southwest 439 505 38,000  Level Atlanta Center
Tue 09:40:19 AM 37.1008 -81.0800 243° Southwest 439 505 38,000  Level Atlanta Center
Tue 09:41:19 AM 37.0475 -81.2094 243° Southwest 434 499 38,000  Level Atlanta Center
Tue 09:42:19 AM 36.9961 -81.3361 243° Southwest 426 490 38,000  Level Atlanta Center
Tue 09:43:19 AM 36.9406 -81.4678 242° Southwest 426 490 38,000  Level Atlanta Center
Tue 09:44:19 AM 36.8969 -81.5783 244° Southwest 411 473 38,000  Level Atlanta Center
Tue 09:45:19 AM 36.8433 -81.7122 243° Southwest 416 479 38,000  Level Atlanta Center
Tue 09:46:19 AM 36.7853 -81.8486 242° Southwest 416 479 38,000  Level Atlanta Center
Tue 09:47:19 AM 36.7292 -81.9769 241° Southwest 416 479 38,000  Level Atlanta Center
Tue 09:48:19 AM 36.6750 -82.1078 243° Southwest 421 484 38,000  Level Atlanta Center
Tue 09:49:19 AM 36.6206 -82.2386 243° Southwest 421 484 38,000  Level Atlanta Center
Tue 09:50:19 AM 36.5642 -82.3664 241° Southwest 421 484 38,000  Level Atlanta Center
Tue 09:51:19 AM 36.5094 -82.4942 242° Southwest 416 479 38,000  Level Atlanta Center
Tue 09:52:19 AM 36.4547 -82.6217 242° Southwest 416 479 38,000  Level Atlanta Center
Tue 09:53:19 AM 36.4019 -82.7517 243° Southwest 416 479 38,000  Level Atlanta Center
Tue 09:54:19 AM 36.3469 -82.8761 241° Southwest 416 479 38,000  Level Atlanta Center
Tue 09:55:19 AM 36.2939 -83.0058 243° Southwest 410 472 38,000  Level Atlanta Center
Tue 09:56:19 AM 36.2383 -83.1300 241° Southwest 420 483 38,000  Level Atlanta Center
Tue 09:57:19 AM 36.1831 -83.2592 242° Southwest 420 483 38,000  Level Atlanta Center
Tue 09:58:19 AM 36.1253 -83.3858 241° Southwest 415 478 38,000  Level Atlanta Center
Tue 09:59:19 AM 36.0781 -83.4992 243° Southwest 415 478 38,000  Level Atlanta Center
Tue 10:00:19 AM 36.0264 -83.6228 243° Southwest 415 478 38,000  Level Atlanta Center
Tue 10:01:19 AM 35.9683 -83.7514 241° Southwest 415 478 38,000  Level Atlanta Center
Tue 10:02:19 AM 35.9100 -83.8772 240° Southwest 420 483 38,000  Level Atlanta Center
Tue 10:03:19 AM 35.8372 -83.9900 231° Southwest 425 489 38,000  Level Atlanta Center
Tue 10:04:19 AM 35.7600 -84.0950 228° Southwest 425 489 38,000  Level Atlanta Center
Tue 10:05:19 AM 35.6806 -84.2075 229° Southwest 425 489 38,000  Level Atlanta Center
Tue 10:06:19 AM 35.6011 -84.3172 228° Southwest 431 496 38,000  Level Atlanta Center
Tue 10:07:19 AM 35.5236 -84.4242 228° Southwest 437 503 38,000  Level Atlanta Center
Tue 10:08:19 AM 35.4419 -84.5358 228° Southwest 437 503 38,000  Level Atlanta Center
Tue 10:09:19 AM 35.3642 -84.6450 229° Southwest 437 503 38,000  Level Atlanta Center
Tue 10:10:19 AM 35.2844 -84.7536 228° Southwest 437 503 38,000  Level Atlanta Center
Tue 10:11:19 AM 35.2064 -84.8622 229° Southwest 437 503 38,000  Level Atlanta Center
Tue 10:12:19 AM 35.1242 -84.9733 228° Southwest 437 503 38,000  Level Atlanta Center
Tue 10:13:19 AM 35.0461 -85.0814 229° Southwest 437 503 38,000  Level Atlanta Center
Tue 10:14:19 AM 34.9639 -85.1894 227° Southwest 437 503 38,000  Level Atlanta Center
Tue 10:15:19 AM 34.8772 -85.3097 229° Southwest 437 503 38,000  Level Atlanta Center
Tue 10:16:19 AM 34.7989 -85.4147 228° Southwest 437 503 38,000  Level Atlanta Center
Tue 10:17:19 AM 34.7183 -85.5247 228° Southwest 437 503 38,000  Level Atlanta Center
Tue 10:18:19 AM 34.6375 -85.6319 228° Southwest 437 503 38,000  Level Atlanta Center
Tue 10:19:19 AM 34.5569 -85.7389 228° Southwest 437 503 38,000  Level Atlanta Center
Tue 10:20:19 AM 34.4844 -85.8331 227° Southwest 437 503 38,000  Level Atlanta Center
Tue 10:21:19 AM 34.4036 -85.9422 228° Southwest 437 503 38,000  Level Atlanta Center
Tue 10:22:19 AM 34.3206 -86.0458 226° Southwest 437 503 38,000  Level Atlanta Center
Tue 10:23:19 AM 34.2394 -86.1519 227° Southwest 437 503 38,000  Level Atlanta Center
Tue 10:24:19 AM 34.1583 -86.2606 228° Southwest 437 503 38,000  Level Atlanta Center
Tue 10:25:19 AM 34.0769 -86.3686 228° Southwest 437 503 38,000  Level Atlanta Center
Tue 10:26:19 AM 33.9933 -86.4767 227° Southwest 437 503 38,000  Level Atlanta Center
Tue 10:27:19 AM 33.9100 -86.5844 227° Southwest 437 503 38,000  Level Atlanta Center
Tue 10:28:19 AM 33.8283 -86.6919 228° Southwest 437 503 38,000  Level Atlanta Center
Tue 10:29:19 AM 33.7444 -86.8019 227° Southwest 437 503 38,000  Level Atlanta Center
Tue 10:30:19 AM 33.6628 -86.9089 227° Southwest 437 503 38,000  Level Atlanta Center
Tue 10:31:19 AM 33.5828 -87.0236 230° Southwest 442 509 38,000  Level Atlanta Center
Tue 10:32:19 AM 33.5089 -87.1381 232° Southwest 447 514 38,000  Level Atlanta Center
Tue 10:33:19 AM 33.4308 -87.2522 231° Southwest 447 514 38,000  Level Atlanta Center
Tue 10:34:19 AM 33.3547 -87.3689 232° Southwest 447 514 38,000  Level Atlanta Center
Tue 10:35:19 AM 33.2764 -87.4825 231° Southwest 452 520 38,000  Level Atlanta Center
Tue 10:36:19 AM 33.2000 -87.6011 232° Southwest 452 520 38,000  Level Atlanta Center
Tue 10:37:24 AM 33.1089 -87.7369 231° Southwest 443 510 38,000  Level Memphis Center
Tue 10:38:26 AM 33.0314 -87.8539 232° Southwest 446 513 38,000  Level Memphis Center
Tue 10:39:28 AM 32.9472 -87.9758 231° Southwest 447 514 38,000  Level Memphis Center
Tue 10:40:31 AM 32.8692 -88.0900 231° Southwest 447 514 38,000  Level Memphis Center
Tue 10:41:33 AM 32.7817 -88.1969 226° Southwest 449 517 38,000  Level Memphis Center
Tue 10:42:35 AM 32.6919 -88.3017 225° Southwest 450 518 38,000  Level Memphis Center
Tue 10:43:37 AM 32.6033 -88.4053 225° Southwest 450 518 38,000  Level Memphis Center
Tue 10:44:39 AM 32.5150 -88.5103 225° Southwest 450 518 38,000  Level Memphis Center
Tue 10:45:41 AM 32.4069 -88.6364 225° Southwest 452 520 38,000 -97 Level Memphis Center
Tue 10:46:43 AM 32.3167 -88.7411 224° Southwest 453 521 37,800 -581 Descending Memphis Center
Tue 10:47:45 AM 32.2264 -88.8453 224° Southwest 453 521 36,800 -960 Descending Memphis Center
Tue 10:48:48 AM 32.1272 -88.9394 219° Southwest 455 524 35,800 -960 Descending Memphis Center
Tue 10:49:50 AM 32.0200 -89.0267 215° Southwest 462 532 34,800 -1,306 Descending Memphis Center
Tue 10:50:52 AM 31.9094 -89.1164 215° Southwest 466 536 33,100 -1,645 Descending Memphis Center
Tue 10:51:54 AM 31.7819 -89.2153 213° Southwest 466 536 31,400 -1,935 Descending Memphis Center
Tue 10:52:56 AM 31.6697 -89.3011 213° Southwest 468 539 29,100 -2,079 Descending Memphis Center
Tue 10:53:35 AM 31.6044 -89.3514 213° Southwest 470 541 27,900 -1,901 Descending Houston Center
Tue 10:54:37 AM 31.4983 -89.4383 215° Southwest 470 541 25,900 -1,839 Descending Houston Center
Tue 10:55:39 AM 31.3903 -89.5264 215° Southwest 472 543 24,100 -1,742 Descending Houston Center
Tue 10:56:41 AM 31.2772 -89.6169 214° Southwest 474 545 22,300 -1,839 Descending Houston Center
Tue 10:57:43 AM 31.1525 -89.7167 214° Southwest 457 526 20,300 -1,694 Descending Houston Center
Tue 10:58:45 AM 31.0497 -89.7983 214° Southwest 452 520 18,800 -1,452 Descending Houston Center
Tue 10:59:47 AM 30.9497 -89.8786 215° Southwest 443 510 17,300 -1,452 Descending Houston Center
Tue 11:00:49 AM 30.8525 -89.9550 214° Southwest 428 493 15,800 -1,500 Descending Houston Center
Tue 11:01:03 AM 30.8200 -89.9800 213° Southwest 417 480 15,400 -1,452 Descending Houston Center
Tue 11:01:51 AM 30.7578 -90.0300 215° Southwest 419 482 14,300 -1,473 Descending Houston Center
Tue 11:02:53 AM 30.6569 -90.1103 214° Southwest 350 403 12,700 -1,317 Descending Houston Center
Tue 11:03:54 AM 30.5836 -90.1689 215° Southwest 309 356 11,600 -1,403 Descending Houston Center
Tue 11:04:57 AM 30.5047 -90.1861 191° South 302 348 9,800 -1,968 Descending Houston Center
Tue 11:05:59 AM 30.4261 -90.1861 180° South 292 336 7,500 -2,447 Descending Houston Center
Tue 11:06:13 AM 30.3961 -90.1864 180° South 281 323 6,700 -2,419 Descending Houston Center
Tue 11:07:01 AM 30.3506 -90.1858 179° South 283 326 5,000 -1,473 Descending Houston Center
Tue 11:08:03 AM 30.2678 -90.1847 179° South 264 304 4,000 -927 Descending Houston Center
Tue 11:09:04 AM 30.2100 -90.1844 180° South 214 246 3,100 -1,016 Descending Houston Center
Tue 11:10:07 AM 30.1556 -90.1981 192° South 214 246 1,900 -567 Descending Houston Center
Tue 11:11:11 AM 30.0981 -90.2153 195° South 193 222 1,900 -435 Level Houston Center
Tue 11:12:11 AM 30.0561 -90.2294 196° South 190 219 1,000 -744 Descending Houston Center
Tue 11:13:12 AM 30.0231 -90.2400 195° South 148 170 400 -590 Descending Houston Center

Login

Don't have an account? Register now (free) for customized features, flight alerts, and more!